Time;durP1;ratioP1;P1;durP2;ratioP2;P2;SDS_P1;SDS_P2;PMS_P1;PMS_P2;Temp;Humidity;BMP_temperature;BMP_pressure;BME280_temperature;BME280_humidity;BME280_pressure;Samples;Min_cycle;Max_cycle;Signal;HPM_P1;HPM_P2
2022/05/05 00:00:20;;;;;;;33.15;19.33;;;;;;;-144.47;66.66;53360.63;4988592;28;20105;-89
2022/05/05 00:02:49;;;;;;;32.60;17.77;;;;;;;-144.47;66.38;53332.81;5011509;28;20211;-89
2022/05/05 00:05:16;;;;;;;38.20;18.73;;;;;;;-144.47;67.04;53360.63;5014398;28;20045;-89
2022/05/05 00:07:44;;;;;;;36.35;19.42;;;;;;;-144.47;66.94;53354.66;5003072;28;20025;-88
2022/05/05 00:16:24;;;;;;;;;;;;;;;;;;;;;
2022/05/05 00:18:58;;;;;;;37.08;19.05;;;;;;;-144.47;66.96;53328.81;5015454;28;20133;-90
2022/05/05 00:21:31;;;;;;;38.38;20.73;;;;;;;-144.47;66.98;53350.69;5014526;28;20221;-90
2022/05/05 00:24:16;;;;;;;;;;;;;;;;;;;;;
2022/05/05 00:26:56;;;;;;;38.33;19.88;;;;;;;-144.47;67.01;53332.81;5013822;28;20129;-90
2022/05/05 00:29:35;;;;;;;33.60;19.60;;;;;;;-144.47;67.34;53344.72;4969139;28;20035;-91
2022/05/05 00:32:23;;;;;;;;;;;;;;;;;;;;;
2022/05/05 00:34:56;;;;;;;37.35;22.15;;;;;;;-144.47;67.47;53356.63;5000189;28;20158;-90
2022/05/05 00:37:32;;;;;;;39.15;22.00;;;;;;;-144.47;67.50;53328.81;5009492;28;20065;-90
2022/05/05 00:40:03;;;;;;;42.10;21.30;;;;;;;-144.47;67.54;53305.00;5003065;28;20046;-90
2022/05/05 00:42:34;;;;;;;37.83;22.15;;;;;;;-144.47;67.15;53344.72;4992131;28;20045;-91
2022/05/05 00:45:10;;;;;;;40.78;21.52;;;;;;;-144.47;67.57;53358.63;5006881;28;20057;-90
2022/05/05 00:47:40;;;;;;;38.05;20.65;;;;;;;-144.47;67.47;53362.59;5002624;28;20042;-91
2022/05/05 00:50:13;;;;;;;42.88;20.75;;;;;;;-144.47;67.43;53330.81;5018077;28;20133;-90
2022/05/05 00:52:40;;;;;;;37.72;21.23;;;;;;;-144.47;67.56;53326.84;5003244;28;20433;-90
2022/05/05 00:55:22;;;;;;;42.47;22.50;;;;;;;-144.47;67.76;53324.84;5007217;28;20559;-92
2022/05/05 00:57:48;;;;;;;42.45;21.88;;;;;;;-144.47;67.41;53368.56;4990914;28;20065;-91
2022/05/05 01:00:21;;;;;;;46.40;23.13;;;;;;;-144.47;67.32;53344.72;5014920;28;20038;-90
2022/05/05 01:02:51;;;;;;;52.10;23.10;;;;;;;-144.47;66.88;53398.34;5015447;28;20041;-91
2022/05/05 01:05:17;;;;;;;41.22;22.98;;;;;;;-144.47;67.73;53350.69;5014955;28;20053;-90
2022/05/05 01:07:42;;;;;;;34.40;21.27;;;;;;;-144.47;67.55;53312.94;4989710;28;20490;-90
2022/05/05 01:10:11;;;;;;;46.05;21.75;;;;;;;-144.47;67.54;53352.66;5015987;28;20121;-90
2022/05/05 01:12:36;;;;;;;42.15;23.17;;;;;;;-144.47;67.83;53336.78;5015399;28;20398;-90
2022/05/05 01:15:06;;;;;;;46.10;21.90;;;;;;;-144.47;68.10;53372.53;5008608;28;20122;-89
2022/05/05 01:17:43;;;;;;;45.85;22.23;;;;;;;-144.47;67.96;53364.59;4997289;28;20061;-90
2022/05/05 01:20:34;;;;;;;;;;;;;;;;;;;;;
2022/05/05 01:23:33;;;;;;;48.75;23.17;;;;;;;-144.47;68.45;53364.59;4983017;28;20122;-91
2022/05/05 01:29:02;;;;;;;48.70;24.60;;;;;;;-144.47;69.05;53358.63;5018352;28;20095;-89
2022/05/05 01:32:22;;;;;;;40.08;22.55;;;;;;;-144.47;69.00;53330.81;5016244;28;20463;-91
2022/05/05 01:35:21;;;;;;;45.92;23.48;;;;;;;-144.47;68.78;53340.75;5043630;28;20410;-90
2022/05/05 01:38:30;;;;;;;42.75;23.55;;;;;;;-144.47;69.32;53336.78;5102583;28;20027;-91
2022/05/05 01:41:21;;;;;;;41.40;24.30;;;;;;;-144.47;69.68;53366.56;5086952;28;20039;-92
2022/05/05 01:43:51;;;;;;;45.22;25.10;;;;;;;-144.47;69.96;53305.00;5013587;28;20040;-90
2022/05/05 01:46:20;;;;;;;51.65;25.48;;;;;;;-144.47;69.89;53342.72;5041232;28;20028;-90
2022/05/05 01:48:52;;;;;;;53.80;25.92;;;;;;;-144.47;70.01;53360.63;5072556;28;20124;-91
2022/05/05 01:51:56;;;;;;;55.75;26.67;;;;;;;-144.47;70.22;53352.66;5073005;28;20112;-91
2022/05/05 01:54:34;;;;;;;45.97;25.08;;;;;;;-144.47;70.58;53356.63;5061782;28;20032;-91
2022/05/05 01:57:06;;;;;;;54.60;28.70;;;;;;;-144.47;70.68;53338.75;5048677;28;20075;-91
2022/05/05 02:00:00;;;;;;;;;;;;;;;;;;;;;
2022/05/05 02:02:32;;;;;;;48.40;28.83;;;;;;;-144.47;70.91;53368.56;5078077;28;20513;-92
2022/05/05 02:05:12;;;;;;;47.10;27.42;;;;;;;-144.47;71.01;53332.81;5067868;28;20119;-92
2022/05/05 02:07:45;;;;;;;55.30;29.65;;;;;;;-144.47;71.14;53374.50;5061587;28;20036;-90
2022/05/05 02:10:27;;;;;;;;;;;;;;;;;;;;;
2022/05/05 02:13:11;;;;;;;52.47;28.23;;;;;;;-144.47;71.16;53350.69;5098986;28;20046;-88
2022/05/05 02:15:55;;;;;;;53.85;30.35;;;;;;;-144.47;71.13;53354.66;5065988;28;20115;-92
2022/05/05 02:18:31;;;;;;;55.70;29.17;;;;;;;-144.47;71.33;53354.66;5086002;28;20047;-90
2022/05/05 02:21:04;;;;;;;56.42;30.33;;;;;;;-144.47;71.69;53370.53;5076374;28;20046;-90
2022/05/05 02:27:11;;;;;;;50.40;29.85;;;;;;;-144.47;72.61;53342.72;5089881;28;20036;-91
2022/05/05 02:30:14;;;;;;;61.72;32.33;;;;;;;-144.47;72.56;53372.53;5055888;28;20044;-91
2022/05/05 02:32:56;;;;;;;56.35;31.55;;;;;;;-144.47;72.93;53364.59;5065896;28;20044;-91
2022/05/05 02:35:31;;;;;;;59.45;31.52;;;;;;;-144.47;73.10;53392.41;5070580;28;20078;-90
2022/05/05 02:41:01;;;;;;;62.08;31.77;;;;;;;-144.47;73.10;53406.31;5072247;28;20082;-90
2022/05/05 02:43:33;;;;;;;56.05;31.60;;;;;;;-144.47;73.10;53394.38;5054080;28;20021;-91
2022/05/05 02:46:40;;;;;;;;;;;;;;;;;;;;;
2022/05/05 02:49:27;;;;;;;58.80;30.85;;;;;;;-144.47;73.28;53364.59;5043709;28;20268;-90
2022/05/05 02:52:03;;;;;;;57.33;30.70;;;;;;;-144.47;73.66;53324.84;5087801;28;20020;-90
2022/05/05 02:54:50;;;;;;;66.82;30.20;;;;;;;-144.47;73.56;53362.59;5023419;28;20063;-91
2022/05/05 02:57:23;;;;;;;62.95;32.80;;;;;;;-144.47;73.61;53372.53;5065764;28;20036;-90
2022/05/05 03:00:25;;;;;;;60.67;31.02;;;;;;;-144.47;73.43;53336.78;5071557;28;20036;-91
2022/05/05 03:02:59;;;;;;;64.15;31.13;;;;;;;-144.47;73.62;53368.56;5069699;28;20037;-91
2022/05/05 03:05:39;;;;;;;63.40;32.20;;;;;;;-144.47;73.53;53392.41;5049836;28;20334;-91
2022/05/05 03:08:05;;;;;;;60.35;30.95;;;;;;;-144.47;73.54;53360.63;5045153;28;20055;-90
2022/05/05 03:11:03;;;;;;;63.25;30.83;;;;;;;-144.47;73.54;53348.69;5049773;28;20095;-91
2022/05/05 03:13:31;;;;;;;61.10;32.33;;;;;;;-144.47;74.01;53364.59;5055005;28;20028;-90
2022/05/05 03:16:13;;;;;;;;;;;;;;;;;;;;;
2022/05/05 03:18:42;;;;;;;67.43;32.38;;;;;;;-144.47;73.82;53354.66;5077649;28;21250;-89
2022/05/05 03:21:08;;;;;;;67.78;31.80;;;;;;;-144.47;74.20;53378.50;5058614;28;20033;-88
2022/05/05 03:23:36;;;;;;;70.28;32.22;;;;;;;-144.47;73.99;53342.72;5051275;28;20113;-91
2022/05/05 03:26:07;;;;;;;65.25;30.83;;;;;;;-144.47;73.99;53386.44;5079000;28;20040;-91
2022/05/05 03:28:33;;;;;;;65.13;31.27;;;;;;;-144.47;74.08;53384.44;5081478;28;20029;-89
2022/05/05 03:31:02;;;;;;;69.75;32.90;;;;;;;-144.47;73.89;53376.50;5063333;28;20056;-91
2022/05/05 03:33:28;;;;;;;59.83;31.73;;;;;;;-144.47;74.11;53376.50;5038909;28;20064;-90
2022/05/05 03:36:05;;;;;;;67.10;33.70;;;;;;;-144.47;73.82;53386.44;5077664;28;20105;-90
2022/05/05 03:38:31;;;;;;;64.75;31.42;;;;;;;-144.47;73.58;53414.25;5051616;28;20044;-89
2022/05/05 03:41:02;;;;;;;61.47;30.35;;;;;;;-144.47;73.32;53390.41;5065150;28;20051;-89
2022/05/05 03:43:29;;;;;;;72.10;30.77;;;;;;;-144.47;73.33;53360.63;5052816;28;20052;-89
2022/05/05 03:46:00;;;;;;;66.18;30.42;;;;;;;-144.47;73.12;53404.31;5090517;28;20077;-84
2022/05/05 03:48:40;;;;;;;62.92;30.65;;;;;;;-144.47;73.25;53424.19;5073372;28;20071;-88
2022/05/05 03:51:19;;;;;;;70.15;33.65;;;;;;;-144.47;73.23;53380.47;5063937;28;20052;-87
2022/05/05 03:53:48;;;;;;;63.78;32.95;;;;;;;-144.47;73.41;53402.31;5069685;28;20036;-89
2022/05/05 03:56:20;;;;;;;72.13;32.42;;;;;;;-144.47;73.48;53370.53;5061366;28;20037;-89
2022/05/05 03:58:48;;;;;;;66.85;31.05;;;;;;;-144.47;73.49;53390.41;5084010;28;20048;-88
2022/05/05 04:01:18;;;;;;;66.65;33.13;;;;;;;-144.47;73.27;53392.41;5079153;28;20016;-89
2022/05/05 04:04:11;;;;;;;69.80;31.98;;;;;;;-144.47;73.40;53410.28;5088547;28;20090;-88
2022/05/05 04:06:39;;;;;;;64.80;33.05;;;;;;;-144.47;73.27;53330.81;5081024;28;20093;-86
2022/05/05 04:09:05;;;;;;;66.10;31.27;;;;;;;-144.47;73.42;53354.66;5087915;28;20036;-88
2022/05/05 04:11:34;;;;;;;65.43;33.78;;;;;;;-144.47;73.15;53362.59;5084611;28;20258;-89
2022/05/05 04:17:25;;;;;;;63.13;30.98;;;;;;;-144.47;72.86;53406.31;5084386;28;20054;-87
2022/05/05 04:19:53;;;;;;;64.97;32.40;;;;;;;-144.47;73.21;53372.53;5067554;28;20074;-89
2022/05/05 04:22:46;;;;;;;62.95;31.73;;;;;;;-144.47;73.05;53368.56;5076065;28;20016;-88
2022/05/05 04:25:54;;;;;;;64.68;32.78;;;;;;;-144.47;72.89;53392.41;5092756;28;20078;-87
2022/05/05 04:28:46;;;;;;;65.85;31.30;;;;;;;-144.47;72.63;53368.56;5059683;28;20119;-90
2022/05/05 04:39:02;;;;;;;66.38;31.00;;;;;;;-144.47;72.76;53362.59;5000674;28;20081;-90
2022/05/05 04:41:27;;;;;;;70.55;32.50;;;;;;;-144.47;72.85;53358.63;4899431;29;20040;-87
2022/05/05 04:44:38;;;;;;;68.30;33.20;;;;;;;-144.47;73.00;53394.38;4897326;29;20163;-88
2022/05/05 04:47:22;;;;;;;;;;;;;;;;;;;;;
2022/05/05 04:50:02;;;;;;;64.88;29.55;;;;;;;-144.47;72.57;53384.44;4919280;29;20100;-87
2022/05/05 04:52:35;;;;;;;64.80;29.95;;;;;;;-144.47;72.35;53368.56;4912612;29;20079;-87
2022/05/05 04:55:32;;;;;;;70.30;31.30;;;;;;;-144.47;72.63;53360.63;4925014;29;20016;-89
2022/05/05 04:58:00;;;;;;;64.10;29.63;;;;;;;-144.47;72.62;53350.69;4913070;29;20149;-89
2022/05/05 05:00:29;;;;;;;62.10;30.47;;;;;;;-144.47;72.22;53392.41;4918584;29;20040;-89
2022/05/05 05:03:00;;;;;;;62.65;29.00;;;;;;;-144.47;72.00;53338.75;4896138;29;20350;-90
2022/05/05 05:05:34;;;;;;;71.75;30.88;;;;;;;-144.47;72.02;53416.22;4928849;29;20039;-90
2022/05/05 05:11:39;;;;;;;64.20;27.90;;;;;;;-144.47;71.33;53360.63;4980578;28;20077;-88
2022/05/05 05:17:55;;;;;;;52.72;28.35;;;;;;;-144.47;71.28;53394.38;4929513;28;20388;-89
2022/05/05 05:27:06;;;;;;;65.60;28.95;;;;;;;-144.47;71.34;53378.50;4971341;28;20027;-86
2022/05/05 05:29:31;;;;;;;54.65;28.23;;;;;;;-144.47;71.09;53364.59;5050166;23;20055;-72
2022/05/05 05:31:56;;;;;;;60.95;25.85;;;;;;;-144.47;70.83;53372.53;5039728;28;20120;-72
2022/05/05 05:34:22;;;;;;;60.10;26.33;;;;;;;-144.47;70.51;53398.34;5049293;28;20488;-74
2022/05/05 05:36:49;;;;;;;47.20;26.35;;;;;;;-144.47;70.61;53348.69;5043550;28;20129;-74
2022/05/05 05:39:18;;;;;;;61.17;27.23;;;;;;;-144.47;70.93;53348.69;5050302;28;20029;-71
2022/05/05 05:41:44;;;;;;;56.25;27.60;;;;;;;-144.47;70.47;53356.63;5049538;28;20048;-72
2022/05/05 05:44:11;;;;;;;54.75;28.13;;;;;;;-144.47;70.11;53364.59;5050692;28;20148;-72
2022/05/05 05:46:36;;;;;;;55.38;27.30;;;;;;;-144.47;69.47;53344.72;5050790;28;20025;-73
2022/05/05 05:49:01;;;;;;;47.60;25.80;;;;;;;-144.47;68.31;53372.53;5037160;28;20032;-72
2022/05/05 05:51:27;;;;;;;60.20;25.10;;;;;;;-144.47;67.75;53374.50;5049766;28;20044;-72
2022/05/05 05:53:52;;;;;;;44.25;24.30;;;;;;;-144.47;67.40;53356.63;5051424;28;20087;-72
2022/05/05 05:56:18;;;;;;;57.95;22.88;;;;;;;-144.47;66.83;53348.69;5051977;28;20032;-73
2022/05/05 05:58:43;;;;;;;50.78;21.45;;;;;;;-144.47;65.86;53356.63;5052094;28;20546;-72
2022/05/05 06:01:09;;;;;;;46.25;21.55;;;;;;;-144.47;66.07;53354.66;5050456;28;20203;-75
2022/05/05 06:06:18;;;;;;;42.25;21.00;;;;;;;-144.47;64.75;53376.50;5055097;28;20451;-67
2022/05/05 06:08:44;;;;;;;57.20;22.05;;;;;;;-144.47;64.62;53380.47;5070511;28;20056;-68
2022/05/05 06:11:11;;;;;;;43.25;21.13;;;;;;;-144.47;64.68;53322.88;5073633;28;20033;-67
2022/05/05 06:13:39;;;;;;;38.45;19.10;;;;;;;-144.47;65.02;53364.59;5062278;28;20086;-66
2022/05/05 06:16:06;;;;;;;40.65;20.33;;;;;;;-144.47;64.19;53346.72;5052517;28;20066;-68
2022/05/05 06:18:31;;;;;;;38.85;19.77;;;;;;;-144.47;64.68;53376.50;5050910;28;20385;-68
2022/05/05 06:20:57;;;;;;;44.40;19.63;;;;;;;-144.47;64.58;53374.50;5045739;28;20082;-68
2022/05/05 06:23:22;;;;;;;41.13;19.50;;;;;;;-144.47;63.88;53358.63;5057004;28;20075;-67
2022/05/05 06:25:47;;;;;;;39.85;19.15;;;;;;;-144.47;63.35;53364.59;5037493;28;20497;-69
2022/05/05 06:28:13;;;;;;;37.38;18.50;;;;;;;-144.47;62.72;53332.81;5063082;28;20013;-68
2022/05/05 06:30:38;;;;;;;45.70;20.67;;;;;;;-144.47;62.81;53354.66;5060439;28;20466;-68
2022/05/05 06:33:04;;;;;;;38.53;19.33;;;;;;;-144.47;62.38;53372.53;5054856;28;20037;-67
2022/05/05 06:35:29;;;;;;;35.92;17.17;;;;;;;-144.47;62.23;53324.84;5055864;28;20029;-67
2022/05/05 06:37:54;;;;;;;41.50;18.70;;;;;;;-144.47;61.86;53346.72;5063203;28;20055;-66
2022/05/05 06:40:20;;;;;;;34.95;18.27;;;;;;;-144.47;61.91;53356.63;5062111;28;20013;-67
2022/05/05 06:42:48;;;;;;;34.38;16.75;;;;;;;-144.47;61.96;53318.91;5061789;28;20024;-66
2022/05/05 06:45:14;;;;;;;34.28;17.92;;;;;;;-144.47;60.99;53354.66;5065902;28;20435;-68
2022/05/05 06:47:40;;;;;;;31.67;16.40;;;;;;;-144.47;60.52;53322.88;5058694;28;20493;-69
2022/05/05 06:50:06;;;;;;;38.58;16.85;;;;;;;-144.47;60.46;53301.03;5059479;28;20645;-66
2022/05/05 06:52:31;;;;;;;29.80;15.50;;;;;;;-144.47;60.16;53336.78;5052129;28;20033;-67
2022/05/05 06:54:56;;;;;;;28.17;15.43;;;;;;;-144.47;60.16;53318.91;5028677;28;20009;-66
2022/05/05 06:57:23;;;;;;;35.08;16.75;;;;;;;-144.47;59.84;53360.63;5060950;28;20098;-68
2022/05/05 06:59:48;;;;;;;37.05;15.07;;;;;;;-144.47;58.26;53328.81;5042263;28;20215;-68
2022/05/05 07:02:13;;;;;;;36.55;15.35;;;;;;;-144.47;58.86;53303.00;5059668;28;20120;-67
2022/05/05 07:07:23;;;;;;;37.10;16.52;;;;;;;-144.47;59.30;53322.88;5056886;28;20106;-67
2022/05/05 07:12:33;;;;;;;37.47;18.27;;;;;;;-144.47;58.85;53306.97;5059341;28;20103;-67
2022/05/05 07:15:48;;;;;;;36.50;18.15;;;;;;;-144.47;58.57;53306.97;5060100;28;20456;-75
2022/05/05 07:18:14;;;;;;;47.83;20.17;;;;;;;-144.47;57.59;53326.84;5047869;28;20675;-66
2022/05/05 07:20:39;;;;;;;34.88;19.25;;;;;;;-144.47;57.51;53320.88;5050935;28;20025;-69
2022/05/05 07:23:06;;;;;;;30.83;17.83;;;;;;;-144.47;58.26;53312.94;5060198;28;20031;-67
2022/05/05 07:25:32;;;;;;;42.40;19.73;;;;;;;-144.47;58.81;53332.81;5053264;28;20162;-67
2022/05/05 07:27:57;;;;;;;35.33;19.13;;;;;;;-144.47;58.47;53310.94;5058821;28;20112;-66
2022/05/05 07:30:23;;;;;;;41.83;18.98;;;;;;;-144.47;58.06;53306.97;5051916;28;20044;-67
2022/05/05 07:32:49;;;;;;;42.33;18.33;;;;;;;-144.47;57.61;53324.84;5048059;28;20065;-68
2022/05/05 07:35:14;;;;;;;33.83;18.33;;;;;;;-144.47;56.82;53346.72;5057290;28;20078;-67
2022/05/05 07:37:39;;;;;;;44.88;24.27;;;;;;;-144.47;55.74;53295.06;5058406;28;20029;-68
2022/05/05 07:40:06;;;;;;;43.08;18.15;;;;;;;-144.47;55.20;53281.16;5062508;28;20020;-68
2022/05/05 07:42:32;;;;;;;41.42;17.38;;;;;;;-144.47;54.97;53305.00;5054908;28;20498;-66
2022/05/05 07:44:57;;;;;;;32.78;16.75;;;;;;;-144.47;55.79;53336.78;5063523;28;20109;-68
2022/05/05 07:47:22;;;;;;;40.35;17.50;;;;;;;-144.47;55.54;53312.94;5051684;28;20037;-68
2022/05/05 07:49:48;;;;;;;38.40;16.45;;;;;;;-144.47;55.04;53289.09;5061026;28;20021;-67
2022/05/05 07:52:13;;;;;;;31.75;16.60;;;;;;;-144.47;54.74;53308.97;5058602;28;20100;-68
2022/05/05 07:54:39;;;;;;;33.10;16.65;;;;;;;-144.47;55.25;53281.16;5057225;28;20017;-68
2022/05/05 07:57:09;;;;;;;33.50;18.33;;;;;;;-144.47;55.52;53324.84;5062390;28;20028;-67
2022/05/05 07:59:35;;;;;;;40.53;16.60;;;;;;;-144.47;54.68;53285.13;5054530;28;20025;-66
2022/05/05 08:02:01;;;;;;;38.80;17.38;;;;;;;-144.47;55.37;53328.81;5053987;28;20040;-68
2022/05/05 08:04:26;;;;;;;31.65;16.92;;;;;;;-144.47;54.13;53275.19;5042430;28;20020;-67
2022/05/05 08:06:52;;;;;;;37.70;16.77;;;;;;;-144.47;54.32;53295.06;5056420;28;20440;-67
2022/05/05 08:09:18;;;;;;;30.60;17.42;;;;;;;-144.47;54.00;53314.91;5058600;28;20047;-68
2022/05/05 08:11:44;;;;;;;48.47;19.35;;;;;;;-144.47;54.79;53297.03;5055429;28;20053;-68
2022/05/05 08:14:10;;;;;;;37.30;17.27;;;;;;;-144.47;55.00;53312.94;5051496;28;20044;-68
2022/05/05 08:16:35;;;;;;;36.03;17.85;;;;;;;-144.47;55.03;53324.84;5055257;28;20066;-67
2022/05/05 08:19:00;;;;;;;37.13;17.98;;;;;;;-144.47;55.08;53324.84;5060861;28;20077;-68
2022/05/05 08:21:26;;;;;;;38.92;18.20;;;;;;;-144.47;54.66;53295.06;5049168;28;20079;-67
2022/05/05 08:28:28;;;;;;;38.75;18.52;;;;;;;-144.47;54.66;53293.06;5054548;28;20119;-68
2022/05/05 08:29:20;;;;;;;51.78;21.52;;;;;;;-144.47;57.11;53312.94;5053304;28;20110;-68
2022/05/05 08:31:46;;;;;;;41.70;20.75;;;;;;;-144.47;57.63;53314.91;5058473;28;20502;-69
2022/05/05 08:34:11;;;;;;;33.53;19.10;;;;;;;-144.47;57.29;53301.03;5055943;28;20023;-67
2022/05/05 08:36:37;;;;;;;38.03;19.40;;;;;;;-144.47;57.42;53301.03;5061163;28;20521;-68
2022/05/05 08:39:02;;;;;;;37.40;19.02;;;;;;;-144.47;56.76;53303.00;5053893;28;20055;-68
2022/05/05 08:41:29;;;;;;;38.65;19.88;;;;;;;-144.47;56.25;53287.13;5057427;28;20129;-68
2022/05/05 08:43:54;;;;;;;49.15;22.33;;;;;;;-144.47;56.32;53287.13;5059732;28;20025;-67
2022/05/05 08:46:23;;;;;;;41.67;18.40;;;;;;;-144.47;56.03;53320.88;5053176;28;20048;-66
2022/05/05 08:48:49;;;;;;;54.25;20.75;;;;;;;-144.47;56.29;53305.00;5060152;28;20013;-67
2022/05/05 08:51:18;;;;;;;32.90;15.77;;;;;;;-144.47;54.75;53312.94;5042527;28;20033;-68
2022/05/05 08:53:52;;;;;;;30.23;14.93;;;;;;;-144.47;54.80;53310.94;5054920;28;20033;-67
2022/05/05 08:56:17;;;;;;;34.42;15.35;;;;;;;-144.47;53.11;53265.25;5056821;28;20170;-68
2022/05/05 08:58:43;;;;;;;30.75;15.10;;;;;;;-144.47;52.45;53297.03;5050374;28;20119;-66
2022/05/05 09:01:08;;;;;;;28.25;15.60;;;;;;;-144.47;51.85;53322.88;5058525;28;20016;-67
2022/05/05 09:03:39;;;;;;;35.67;15.77;;;;;;;-144.47;52.17;53281.16;5057526;28;20478;-67
2022/05/05 09:06:04;;;;;;;33.03;16.02;;;;;;;-144.47;51.58;53310.94;5064795;28;20025;-67
2022/05/05 09:08:32;;;;;;;34.28;15.90;;;;;;;-144.47;50.67;53303.00;5057097;28;20029;-65
2022/05/05 09:11:03;;;;;;;32.47;14.98;;;;;;;-144.47;50.30;53291.09;5055148;28;20024;-68
2022/05/05 09:13:32;;;;;;;33.42;14.43;;;;;;;-144.47;49.11;53289.09;5056723;28;20037;-67
2022/05/05 09:15:57;;;;;;;31.42;14.00;;;;;;;-144.47;48.03;53320.88;5050746;28;20070;-69
2022/05/05 09:18:31;;;;;;;28.92;14.10;;;;;;;-144.47;48.42;53289.09;5059832;28;20045;-68
2022/05/05 09:21:04;;;;;;;38.55;15.75;;;;;;;-144.47;48.44;53283.13;5043581;28;20090;-67
2022/05/05 09:23:31;;;;;;;34.63;15.52;;;;;;;-144.47;48.38;53305.00;5044735;28;20120;-67
2022/05/05 09:25:58;;;;;;;37.90;14.60;;;;;;;-144.47;48.71;53293.06;5052514;28;20363;-67
2022/05/05 09:28:31;;;;;;;30.55;14.02;;;;;;;-144.47;48.96;53243.41;5059327;28;20086;-66
2022/05/05 09:31:07;;;;;;;31.52;15.45;;;;;;;-144.47;48.30;53301.03;5055060;28;20095;-66
2022/05/05 09:33:38;;;;;;;31.23;13.75;;;;;;;-144.47;47.17;53227.53;5048290;28;20112;-65
2022/05/05 09:36:06;;;;;;;30.40;13.45;;;;;;;-144.47;46.40;53281.16;5044569;28;20033;-68
2022/05/05 09:38:54;;;;;;;29.52;12.90;;;;;;;-144.47;45.93;53281.16;5063899;28;20032;-68
2022/05/05 09:41:25;;;;;;;31.80;14.05;;;;;;;-144.47;46.66;53261.28;5057688;28;20029;-67
2022/05/05 09:43:53;;;;;;;30.13;14.35;;;;;;;-144.47;46.55;53295.06;5056324;28;20025;-67
2022/05/05 09:46:21;;;;;;;25.02;13.57;;;;;;;-144.47;45.78;53285.13;5054065;28;20025;-67
2022/05/05 09:48:46;;;;;;;31.77;13.80;;;;;;;-144.47;45.45;53291.09;5058637;28;20143;-67
2022/05/05 09:51:14;;;;;;;29.52;13.05;;;;;;;-144.47;44.60;53273.22;5051676;28;20337;-67
2022/05/05 09:59:14;;;;;;;35.00;11.85;;;;;;;-144.47;42.92;53275.19;5052948;28;20039;-66
2022/05/05 10:01:41;;;;;;;27.85;11.60;;;;;;;-144.47;43.11;53273.22;5056145;28;20067;-67
2022/05/05 10:04:09;;;;;;;32.67;14.57;;;;;;;-144.47;44.39;53247.38;5052505;28;20440;-68
2022/05/05 10:06:37;;;;;;;35.13;12.65;;;;;;;-144.47;43.59;53251.34;5049931;28;20056;-67
2022/05/05 10:09:03;;;;;;;30.92;13.85;;;;;;;-144.47;43.61;53271.22;5057571;28;20384;-68
2022/05/05 10:11:30;;;;;;;29.17;13.60;;;;;;;-144.47;44.14;53273.22;5031212;28;20055;-68
2022/05/05 10:13:56;;;;;;;29.88;13.60;;;;;;;-144.47;44.21;53265.25;5039542;28;20137;-68
2022/05/05 10:16:22;;;;;;;27.88;13.95;;;;;;;-144.47;43.74;53249.38;5053463;28;20109;-68
2022/05/05 10:18:48;;;;;;;30.20;13.57;;;;;;;-144.47;43.91;53231.50;5053476;28;20025;-66
2022/05/05 10:21:44;;;;;;;28.23;12.73;;;;;;;-144.47;43.98;53237.44;5049262;28;20094;-67
2022/05/05 10:24:22;;;;;;;27.42;11.32;;;;;;;-144.47;42.55;53241.44;5052227;28;20021;-66
2022/05/05 10:26:49;;;;;;;22.58;10.50;;;;;;;-144.47;42.31;53259.31;5054433;28;20044;-69
2022/05/05 10:29:37;;;;;;;27.75;11.43;;;;;;;-144.47;42.47;53251.34;5057355;28;20040;-67
2022/05/05 10:32:13;;;;;;;29.85;12.43;;;;;;;-144.47;42.11;53247.38;5047992;28;20411;-67
2022/05/05 10:34:39;;;;;;;32.63;13.27;;;;;;;-144.47;42.91;53235.47;5054979;28;20029;-67
2022/05/05 10:37:11;;;;;;;27.90;13.25;;;;;;;-144.47;42.67;53213.63;5053287;28;20019;-68
2022/05/05 10:39:47;;;;;;;33.60;13.23;;;;;;;-144.47;42.32;53217.59;5053874;28;20041;-69
2022/05/05 10:42:17;;;;;;;26.83;13.23;;;;;;;-144.47;42.32;53273.22;5056536;28;20432;-67
2022/05/05 10:45:20;;;;;;;22.95;12.63;;;;;;;-144.47;41.96;53271.22;5048056;28;20037;-67
2022/05/05 10:47:52;;;;;;;27.38;12.60;;;;;;;-144.47;42.33;53267.25;5047446;28;20065;-66
2022/05/05 10:50:42;;;;;;;26.45;11.63;;;;;;;-144.47;41.92;53243.41;5042214;28;20029;-67
2022/05/05 10:53:24;;;;;;;29.83;12.23;;;;;;;-144.47;41.92;53239.44;5047984;28;20027;-68
2022/05/05 10:55:49;;;;;;;27.60;12.52;;;;;;;-144.47;41.40;53271.22;5041613;28;20037;-68
2022/05/05 10:58:52;;;;;;;29.30;12.27;;;;;;;-144.47;41.72;53285.13;5046948;28;20557;-67
2022/05/05 11:01:17;;;;;;;29.13;13.50;;;;;;;-144.47;42.02;53229.50;5047793;28;20324;-68
2022/05/05 11:04:24;;;;;;;22.42;13.38;;;;;;;-144.47;41.59;53243.41;5051198;28;20434;-68
2022/05/05 11:07:22;;;;;;;31.52;14.93;;;;;;;-144.47;41.87;53243.41;5045524;28;20338;-68
2022/05/05 11:09:47;;;;;;;38.50;14.45;;;;;;;-144.47;40.79;53251.34;5057291;28;20060;-67
2022/05/05 11:12:16;;;;;;;24.95;12.98;;;;;;;-144.47;40.64;53253.34;5054530;28;20490;-67
2022/05/05 11:23:32;;;;;;;25.10;12.95;;;;;;;-144.47;40.87;53249.38;5045897;28;20064;-68
2022/05/05 11:25:57;;;;;;;31.05;13.63;;;;;;;-144.47;40.24;53223.56;5048067;28;20389;-66
2022/05/05 11:28:26;;;;;;;31.23;12.80;;;;;;;-144.47;39.44;53245.41;5048113;28;20016;-67
2022/05/05 11:30:52;;;;;;;29.42;13.80;;;;;;;-144.47;39.02;53243.41;5048903;28;20025;-70
2022/05/05 11:33:19;;;;;;;24.60;13.32;;;;;;;-144.47;38.86;53213.63;5054514;28;20074;-68
2022/05/05 11:35:56;;;;;;;36.03;14.00;;;;;;;-144.47;38.48;53233.47;5051452;28;20091;-67
2022/05/05 11:38:23;;;;;;;31.08;12.32;;;;;;;-144.47;38.54;53227.53;5060037;28;20032;-67
2022/05/05 11:40:48;;;;;;;29.05;12.70;;;;;;;-144.47;38.37;53195.75;5055452;28;20029;-68
2022/05/05 11:45:59;;;;;;;29.95;12.18;;;;;;;-144.47;38.11;53217.59;5054248;28;20097;-68
2022/05/05 11:48:24;;;;;;;26.83;13.05;;;;;;;-144.47;38.22;53203.69;5055327;28;20128;-67
2022/05/05 11:50:50;;;;;;;29.52;12.20;;;;;;;-144.47;38.16;53225.53;5059300;28;20069;-68
2022/05/05 11:53:17;;;;;;;25.85;12.35;;;;;;;-144.47;38.04;53237.44;5056256;28;20021;-69
2022/05/05 11:55:46;;;;;;;21.92;11.38;;;;;;;-144.47;37.57;53185.81;5053432;28;20389;-68
2022/05/05 12:01:36;;;;;;;27.33;11.50;;;;;;;-144.47;37.87;53253.34;5053539;28;20358;-70
2022/05/05 12:04:00;;;;;;;26.27;10.80;;;;;;;-144.47;38.00;53211.63;5058291;22;20047;-70
2022/05/05 12:06:26;;;;;;;26.90;11.20;;;;;;;-144.47;37.89;53233.47;5051723;28;20120;-71
2022/05/05 12:08:51;;;;;;;29.40;10.82;;;;;;;-144.47;38.67;53233.47;5060530;28;20632;-68
2022/05/05 12:11:17;;;;;;;21.00;11.10;;;;;;;-144.47;38.74;53235.47;5046118;28;20493;-69
2022/05/05 12:13:42;;;;;;;22.70;11.85;;;;;;;-144.47;38.59;53219.56;5054920;28;20026;-69
2022/05/05 12:16:09;;;;;;;25.38;10.32;;;;;;;-144.47;37.90;53225.53;5018888;28;20013;-69
2022/05/05 12:18:51;;;;;;;21.25;10.63;;;;;;;-144.47;37.55;53281.16;5034437;28;20083;-69
2022/05/05 12:21:21;;;;;;;26.85;10.00;;;;;;;-144.47;36.43;53253.34;5027648;28;20025;-71
2022/05/05 12:23:57;;;;;;;22.25;10.32;;;;;;;-144.47;37.60;53215.59;5033706;28;20032;-69
2022/05/05 12:26:28;;;;;;;19.23;9.93;;;;;;;-144.47;37.88;53199.72;5035753;28;20120;-70
2022/05/05 12:28:54;;;;;;;21.35;10.93;;;;;;;-144.47;37.22;53221.56;5040199;28;20021;-68
2022/05/05 12:31:24;;;;;;;21.77;10.65;;;;;;;-144.47;37.91;53261.28;5033484;28;20140;-71
2022/05/05 12:33:50;;;;;;;23.35;9.80;;;;;;;-144.47;38.23;53257.31;5031998;28;20016;-70
2022/05/05 12:36:16;;;;;;;25.83;10.93;;;;;;;-144.47;37.63;53227.53;5043600;28;20025;-71
2022/05/05 12:38:42;;;;;;;25.60;10.82;;;;;;;-144.47;37.98;53265.25;5037305;28;20096;-69
2022/05/05 12:41:08;;;;;;;24.67;10.55;;;;;;;-144.47;37.67;53233.47;5041858;28;20041;-74
2022/05/05 12:43:34;;;;;;;23.38;10.43;;;;;;;-144.47;37.41;53251.34;5035761;28;20030;-69
2022/05/05 12:46:04;;;;;;;23.48;9.50;;;;;;;-144.47;36.79;53265.25;5038235;28;20091;-71
2022/05/05 12:48:30;;;;;;;28.55;10.15;;;;;;;-144.47;36.88;53249.38;5032216;28;20061;-70